< < Back
Terminal Aerodrome Forecast


Current Version              Previous Versions:   1  2  3  4  5  6  7  8  9  

Terminal Aerodrome Forecast

369
FTUS42 KGSP 290525 CCB
TAFGSP
TAF COR
KGSP 290525Z 2906/3006 23006KT P6SM FEW070 FEW250
     FM291000 23004KT P6SM FEW090 SCT250
     FM291800 25009KT P6SM BKN060 PROB30 2920/2924 4SM -TSRA
      OVC040CB
     FM300000 24004KT P6SM BKN050
     FM300400 VRB02KT P6SM SCT070=

Latest METAR

562
SAUS70 KWBC 291700 RRL
MTRGSP
METAR KGSP 291653Z COR VRB04KT 10SM SCT040 32/20 A2999 RMK AO2 SLP139
T03170200


USA.gov is the U.S. government's official web portal to all federal, state and local government web resources and services.